createdAt,value
2023-04-16T00:02:03.160Z,59.24
2023-04-16T00:06:02.741Z,59.31
2023-04-16T00:10:02.722Z,59.47
2023-04-16T00:14:03.364Z,59.42
2023-04-16T00:18:03.362Z,59.35
2023-04-16T00:22:02.702Z,59.20
2023-04-16T00:26:02.627Z,59.58
2023-04-16T00:30:02.651Z,59.67
2023-04-16T00:34:02.786Z,58.90
2023-04-16T00:38:02.737Z,58.74
2023-04-16T00:42:02.607Z,59.39
2023-04-16T00:46:02.560Z,59.26
2023-04-16T00:50:02.714Z,59.69
2023-04-16T00:54:02.709Z,59.61
2023-04-16T01:11:01.806Z,58.76
2023-04-16T02:02:51.227Z,59.04
2023-04-16T02:06:41.598Z,58.90
2023-04-16T02:10:40.706Z,58.96
2023-04-16T02:14:41.084Z,59.11
2023-04-16T02:18:41.092Z,59.00
2023-04-16T02:22:41.528Z,58.72
2023-04-16T02:26:40.772Z,58.68
2023-04-16T02:30:41.059Z,58.86
2023-04-16T02:34:41.122Z,59.02
2023-04-16T02:38:40.693Z,58.89
2023-04-16T02:42:41.083Z,58.98
2023-04-16T02:46:40.566Z,58.39
2023-04-16T02:50:40.570Z,58.28
2023-04-16T02:58:29.787Z,58.05
2023-04-16T03:02:29.564Z,58.16
2023-04-16T03:06:29.618Z,58.49
2023-04-16T03:10:29.872Z,58.29
2023-04-16T03:14:29.803Z,58.40
2023-04-16T03:18:29.891Z,58.40
2023-04-16T03:22:29.521Z,58.60
2023-04-16T03:26:29.815Z,58.90
2023-04-16T03:30:30.291Z,58.45
2023-04-16T03:34:30.058Z,58.53
2023-04-16T03:38:30.289Z,58.18
2023-04-16T03:42:29.995Z,58.17
2023-04-16T03:46:29.973Z,58.76
2023-04-16T03:55:01.072Z,58.79
2023-04-16T04:07:41.932Z,59.24
2023-04-16T04:11:39.977Z,59.49
2023-04-16T04:15:29.654Z,59.19
2023-04-16T04:19:29.608Z,59.28
2023-04-16T04:23:29.535Z,59.43
2023-04-16T04:27:29.596Z,59.03
2023-04-16T04:31:29.498Z,59.16
2023-04-16T04:35:29.503Z,59.26
2023-04-16T04:39:29.512Z,59.21
2023-04-16T04:43:29.474Z,59.48
2023-04-16T04:47:29.471Z,59.64
2023-04-16T04:51:29.446Z,59.67
2023-04-16T04:55:29.528Z,59.23
2023-04-16T04:59:30.015Z,59.38
2023-04-16T05:03:29.702Z,58.49
2023-04-16T05:07:30.020Z,58.64
2023-04-16T05:11:29.862Z,58.36
2023-04-16T05:15:30.000Z,58.91
2023-04-16T05:19:30.008Z,58.21
2023-04-16T05:23:29.879Z,58.74
2023-04-16T05:27:30.001Z,58.85
2023-04-16T05:31:30.100Z,58.65
2023-04-16T05:35:30.578Z,58.55
2023-04-16T05:39:30.504Z,59.19
2023-04-16T05:43:30.075Z,59.36
2023-04-16T05:47:30.535Z,59.04
2023-04-16T05:51:30.130Z,59.08
2023-04-16T05:55:30.496Z,59.18
2023-04-16T05:59:30.456Z,59.30
2023-04-16T06:03:30.343Z,59.11
2023-04-16T06:07:30.490Z,59.11
2023-04-16T06:11:30.263Z,59.45
2023-04-16T06:15:30.168Z,59.30
2023-04-16T06:19:30.122Z,59.38
2023-04-16T06:23:30.193Z,59.57
2023-04-16T06:27:30.648Z,58.88
2023-04-16T06:31:30.019Z,58.52
2023-04-16T06:35:30.057Z,58.35
2023-04-16T06:39:30.032Z,59.16
2023-04-16T06:43:29.883Z,58.52
2023-04-16T06:47:30.046Z,58.43
2023-04-16T06:51:29.850Z,58.59
2023-04-16T06:55:30.079Z,59.00
2023-04-16T06:59:30.066Z,58.79
2023-04-16T07:03:30.639Z,58.41
2023-04-16T07:07:30.519Z,58.27
2023-04-16T07:11:31.015Z,58.57
2023-04-16T07:15:31.050Z,58.98
2023-04-16T07:19:31.036Z,58.12
2023-04-16T07:23:31.545Z,58.44
2023-04-16T07:27:31.267Z,57.83
2023-04-16T07:31:31.564Z,58.62
2023-04-16T07:35:31.476Z,57.15
2023-04-16T07:39:31.602Z,56.26
2023-04-16T07:43:31.999Z,54.71
2023-04-16T07:47:31.746Z,54.86
2023-04-16T07:51:32.051Z,55.98
2023-04-16T07:55:32.005Z,56.81
2023-04-16T07:59:32.003Z,57.22
2023-04-16T08:03:32.195Z,55.65
2023-04-16T08:07:34.381Z,56.06
2023-04-16T08:11:32.006Z,57.99
2023-04-16T08:15:31.987Z,57.06
2023-04-16T08:19:31.966Z,55.83
2023-04-16T08:23:32.018Z,55.19
2023-04-16T08:27:31.873Z,55.27
2023-04-16T08:31:32.105Z,55.72
2023-04-16T08:35:31.842Z,56.04
2023-04-16T08:39:31.767Z,55.43
2023-04-16T08:43:31.728Z,54.98
2023-04-16T08:47:31.743Z,54.02
2023-04-16T08:51:32.031Z,53.53
2023-04-16T08:55:31.807Z,54.38
2023-04-16T08:59:32.061Z,53.51
2023-04-16T09:03:34.844Z,54.54
2023-04-16T09:07:32.189Z,55.52
2023-04-16T09:15:51.985Z,53.90
2023-04-16T09:19:51.813Z,54.84
2023-04-16T09:23:51.808Z,55.48
2023-04-16T09:27:52.122Z,56.56
2023-04-16T09:31:51.774Z,56.50
2023-04-16T09:35:51.690Z,55.26
2023-04-16T09:40:02.192Z,55.40
2023-04-16T09:43:51.658Z,54.51
2023-04-16T09:47:51.708Z,54.56
2023-04-16T09:51:51.659Z,55.31
2023-04-16T09:55:51.541Z,53.51
2023-04-16T09:59:51.474Z,54.35
2023-04-16T10:03:51.766Z,53.38
2023-04-16T10:07:51.493Z,54.38
2023-04-16T10:11:51.524Z,54.33
2023-04-16T10:15:51.459Z,53.54
2023-04-16T10:19:51.433Z,54.01
2023-04-16T10:28:11.092Z,56.23
2023-04-16T10:32:11.051Z,56.47
2023-04-16T10:36:11.051Z,56.36
2023-04-16T10:40:21.453Z,54.57
2023-04-16T10:44:11.005Z,55.08
2023-04-16T11:01:10.639Z,54.41
2023-04-16T11:05:10.580Z,52.15
2023-04-16T11:09:10.565Z,52.16
2023-04-16T11:13:10.611Z,52.06
2023-04-16T11:30:09.356Z,51.23
2023-04-16T11:34:09.332Z,51.12
2023-04-16T11:38:09.311Z,52.22
2023-04-16T11:46:29.063Z,51.11
2023-04-16T11:50:39.291Z,51.76
2023-04-16T12:11:48.172Z,51.21
2023-04-16T12:15:58.634Z,54.64
2023-04-16T12:19:48.666Z,54.68
2023-04-16T12:23:48.079Z,53.87
2023-04-16T12:27:49.479Z,51.55
2023-04-16T12:31:48.094Z,51.42
2023-04-16T12:35:48.065Z,51.54
2023-04-16T12:39:48.182Z,51.84
2023-04-16T12:43:48.094Z,51.94
2023-04-16T12:47:47.896Z,52.46
2023-04-16T12:51:47.913Z,51.52
2023-04-16T12:55:48.089Z,51.36
2023-04-16T12:59:47.768Z,49.63
2023-04-16T13:16:47.493Z,48.93
2023-04-16T13:20:47.138Z,49.77
2023-04-16T13:24:47.115Z,49.17
2023-04-16T13:33:07.096Z,49.36
2023-04-16T13:41:26.885Z,49.66
2023-04-16T13:45:27.270Z,49.74
2023-04-16T13:49:27.152Z,49.64
2023-04-16T13:53:26.767Z,50.58
2023-04-16T13:57:27.154Z,50.43
2023-04-16T14:01:26.732Z,50.47
2023-04-16T14:05:27.392Z,49.71
2023-04-16T14:09:26.683Z,49.42
2023-04-16T14:13:26.580Z,48.81
2023-04-16T14:17:26.848Z,49.51
2023-04-16T14:21:26.671Z,48.20
2023-04-16T14:25:26.687Z,48.40
2023-04-16T14:29:26.628Z,47.54
2023-04-16T14:33:26.415Z,47.35
2023-04-16T14:37:26.658Z,48.41
2023-04-16T14:41:26.687Z,48.28
2023-04-16T14:45:26.278Z,48.19
2023-04-16T14:49:26.689Z,47.23
2023-04-16T14:53:26.203Z,47.54
2023-04-16T14:57:26.168Z,47.06
2023-04-16T15:01:26.366Z,48.03
2023-04-16T15:05:26.337Z,48.41
2023-04-16T15:09:26.253Z,47.77
2023-04-16T15:13:26.706Z,47.80
2023-04-16T15:17:26.521Z,47.85
2023-04-16T15:21:26.756Z,47.66
2023-04-16T15:25:26.608Z,47.40
2023-04-16T15:29:26.630Z,47.46
2023-04-16T15:33:27.341Z,47.77
2023-04-16T15:37:26.817Z,47.80
2023-04-16T15:41:26.973Z,47.39
2023-04-16T15:45:27.165Z,47.92
2023-04-16T15:49:27.138Z,48.01
2023-04-16T15:53:27.683Z,48.25
2023-04-16T15:57:27.662Z,48.16
2023-04-16T16:01:27.608Z,48.87
2023-04-16T16:05:27.888Z,48.42
2023-04-16T16:09:27.692Z,48.34
2023-04-16T16:13:27.828Z,48.52
2023-04-16T16:26:07.805Z,49.83
2023-04-16T16:30:07.752Z,50.17
2023-04-16T16:34:09.068Z,49.48
2023-04-16T16:38:08.219Z,49.39
2023-04-16T16:42:08.133Z,49.47
2023-04-16T16:46:07.762Z,49.32
2023-04-16T16:50:07.707Z,48.91
2023-04-16T16:54:08.237Z,48.74
2023-04-16T16:58:07.576Z,49.00
2023-04-16T17:02:07.732Z,49.57
2023-04-16T17:06:07.575Z,49.70
2023-04-16T17:10:07.642Z,50.00
2023-04-16T17:14:07.646Z,49.84
2023-04-16T17:18:07.829Z,49.87
2023-04-16T17:22:07.430Z,49.69
2023-04-16T17:34:01.883Z,50.53
2023-04-16T17:37:51.521Z,50.85
2023-04-16T17:41:51.451Z,50.83
2023-04-16T17:50:21.322Z,50.95
2023-04-16T17:54:21.328Z,50.81
2023-04-16T17:58:11.341Z,50.76
2023-04-16T18:09:46.070Z,50.97
2023-04-16T18:20:23.161Z,51.38
2023-04-16T18:34:20.972Z,51.19
2023-04-16T18:48:08.187Z,52.62
2023-04-16T19:21:40.775Z,53.35
2023-04-16T19:39:14.452Z,55.15
2023-04-16T19:51:42.798Z,54.72
2023-04-16T19:56:27.398Z,55.12
2023-04-16T20:00:27.646Z,55.29
2023-04-16T20:17:01.313Z,55.11
2023-04-16T20:27:37.827Z,55.59
2023-04-16T20:31:27.518Z,56.16
2023-04-16T20:35:27.284Z,56.12
2023-04-16T20:39:27.368Z,56.04
2023-04-16T20:43:27.242Z,56.00
2023-04-16T20:47:27.108Z,56.25
2023-04-16T20:51:27.331Z,56.32
2023-04-16T20:55:27.328Z,56.65
2023-04-16T20:59:27.023Z,56.42
2023-04-16T21:12:07.085Z,56.55
2023-04-16T21:16:07.020Z,56.40
2023-04-16T21:20:07.103Z,56.26
2023-04-16T21:24:07.146Z,56.29
2023-04-16T21:28:07.732Z,56.40
2023-04-16T21:32:07.359Z,56.26
2023-04-16T21:36:07.525Z,56.69
2023-04-16T21:40:08.167Z,56.69
2023-04-16T21:44:08.136Z,56.69
2023-04-16T21:48:07.863Z,56.55
2023-04-16T21:52:08.040Z,56.19
2023-04-16T21:56:08.694Z,56.19
2023-04-16T22:00:08.387Z,55.87
2023-04-16T22:04:08.544Z,55.92
2023-04-16T22:08:23.387Z,56.02
2023-04-16T22:12:09.731Z,56.09
2023-04-16T22:16:10.133Z,56.36
2023-04-16T22:20:08.494Z,56.26
2023-04-16T22:24:08.526Z,56.83
2023-04-16T22:28:08.557Z,57.03
2023-04-16T22:32:08.570Z,56.69
2023-04-16T22:36:08.657Z,56.81
2023-04-16T22:40:08.556Z,56.99
2023-04-16T22:44:08.596Z,57.23
2023-04-16T22:48:08.258Z,57.05
2023-04-16T22:52:08.574Z,57.31
2023-04-16T23:00:50.914Z,57.71
2023-04-16T23:04:51.147Z,57.89
2023-04-16T23:09:01.126Z,58.19
2023-04-16T23:12:50.762Z,58.10
2023-04-16T23:16:51.268Z,58.17
2023-04-16T23:32:28.683Z,58.22
2023-04-16T23:36:28.577Z,58.40
2023-04-16T23:40:28.672Z,58.82
2023-04-16T23:44:28.669Z,58.72
2023-04-16T23:48:28.541Z,58.82
2023-04-16T23:52:28.704Z,58.86
2023-04-16T23:56:28.741Z,58.63
